createdAt,value
2019-05-19T00:03:06.316Z,11.72
2019-05-19T00:08:06.554Z,11.76
2019-05-19T00:13:06.211Z,11.76
2019-05-19T00:18:06.451Z,11.63
2019-05-19T00:22:07.281Z,11.7
2019-05-19T00:27:06.588Z,11.56
2019-05-19T00:32:07.006Z,11.51
2019-05-19T00:37:07.257Z,11.34
2019-05-19T00:42:06.798Z,10.98
2019-05-19T00:47:07.001Z,10.12
2019-05-19T00:51:06.239Z,9.9
2019-05-19T00:56:06.569Z,9.78
2019-05-19T01:01:06.710Z,9.99
2019-05-19T01:06:09.199Z,10.58
2019-05-19T01:11:07.978Z,10.55
2019-05-19T01:16:07.030Z,10.55
2019-05-19T01:21:07.247Z,10.35
2019-05-19T01:26:07.477Z,10.06
2019-05-19T01:30:08.222Z,9.77
2019-05-19T01:35:06.404Z,9.38
2019-05-19T01:40:06.896Z,8.95
2019-05-19T01:45:08.355Z,8.76
2019-05-19T01:50:18.808Z,8.59
2019-05-19T01:55:07.085Z,8.57
2019-05-19T02:00:08.352Z,8.57
2019-05-19T02:05:07.420Z,8.52
2019-05-19T02:10:07.193Z,8.55
2019-05-19T02:15:08.547Z,8.52
2019-05-19T02:19:06.621Z,8.44
2019-05-19T02:24:06.767Z,8.34
2019-05-19T02:29:07.005Z,8.27
2019-05-19T02:34:06.999Z,8.33
2019-05-19T02:39:07.632Z,8.32
2019-05-19T02:44:06.820Z,8.32
2019-05-19T02:49:06.804Z,8.41
2019-05-19T02:53:06.367Z,8.45
2019-05-19T02:58:06.621Z,8.47
2019-05-19T03:03:06.529Z,8.73
2019-05-19T03:08:06.770Z,8.83
2019-05-19T03:13:06.413Z,9.04
2019-05-19T03:18:06.566Z,9.18
2019-05-19T03:23:06.987Z,9.33
2019-05-19T03:28:07.234Z,9.93
2019-05-19T03:32:13.108Z,10.09
2019-05-19T03:37:06.609Z,10.21
2019-05-19T03:42:10.867Z,10.3
2019-05-19T03:47:07.002Z,10.4
2019-05-19T03:52:07.299Z,11
2019-05-19T03:57:06.856Z,11.13
2019-05-19T04:02:06.255Z,11.16
2019-05-19T04:07:06.754Z,11.14
2019-05-19T04:11:06.365Z,11.03
2019-05-19T04:16:06.652Z,11.04
2019-05-19T04:21:06.724Z,10.92
2019-05-19T04:26:06.948Z,11.78
2019-05-19T04:31:07.123Z,12.72
2019-05-19T04:36:07.477Z,14.17
2019-05-19T04:41:07.131Z,14.88
2019-05-19T04:48:10.022Z,14.36
2019-05-19T04:52:07.859Z,14.82
2019-05-19T04:57:07.536Z,16.56
2019-05-19T05:02:07.025Z,16.85
2019-05-19T05:07:06.309Z,17.14
2019-05-19T05:12:07.082Z,16.45
2019-05-19T05:17:06.456Z,17.14
2019-05-19T05:22:22.301Z,17.44
2019-05-19T05:27:06.948Z,17.34
2019-05-19T05:31:06.678Z,17.54
2019-05-19T05:36:06.960Z,16.71
2019-05-19T05:41:06.620Z,16.98
2019-05-19T05:46:07.541Z,17.76
2019-05-19T05:51:06.764Z,18.43
2019-05-19T05:56:06.981Z,18.61
2019-05-19T06:01:06.316Z,18.59
2019-05-19T06:06:06.580Z,19.54
2019-05-19T06:11:07.205Z,20.43
2019-05-19T06:15:08.071Z,20.72
2019-05-19T06:20:08.806Z,20.88
2019-05-19T06:25:07.480Z,21.18
2019-05-19T06:30:09.863Z,21.28
2019-05-19T06:35:07.101Z,21.35
2019-05-19T06:40:06.672Z,21.92
2019-05-19T06:45:08.364Z,21.46
2019-05-19T06:49:07.344Z,21.06
2019-05-19T06:54:06.659Z,20.99
2019-05-19T06:59:06.971Z,20.74
2019-05-19T07:04:06.425Z,21.01
2019-05-19T07:09:07.193Z,20.92
2019-05-19T07:14:06.477Z,22.65
2019-05-19T07:18:07.812Z,22.49
2019-05-19T07:19:07.119Z,22.49
2019-05-19T07:23:07.001Z,22.43
2019-05-19T07:28:07.190Z,23.06
2019-05-19T07:33:07.309Z,22.42
2019-05-19T07:38:08.245Z,23.24
2019-05-19T07:43:06.865Z,22.75
2019-05-19T07:48:07.138Z,22.99
2019-05-19T07:53:07.445Z,23.26
2019-05-19T07:57:06.881Z,23.06
2019-05-19T08:02:06.583Z,23.12
2019-05-19T08:07:06.899Z,23.01
2019-05-19T08:12:07.543Z,22.48
2019-05-19T08:17:06.729Z,23.45
2019-05-19T08:22:06.965Z,23.64
2019-05-19T08:27:07.193Z,23.83
2019-05-19T08:31:06.603Z,24.11
2019-05-19T08:36:06.798Z,23.64
2019-05-19T08:41:07.389Z,23.45
2019-05-19T08:46:07.332Z,23.79
2019-05-19T08:51:06.620Z,24.04
2019-05-19T08:56:06.979Z,23.79
2019-05-19T09:01:07.657Z,23.67
2019-05-19T09:06:06.944Z,24.55
2019-05-19T09:10:06.979Z,24.94
2019-05-19T09:15:08.592Z,24.35
2019-05-19T09:20:07.189Z,24.29
2019-05-19T09:25:07.552Z,24.2
2019-05-19T09:30:08.682Z,24.6
2019-05-19T09:35:06.738Z,24.77
2019-05-19T09:40:07.409Z,25.2
2019-05-19T09:44:06.529Z,24.9
2019-05-19T09:49:07.406Z,25.04
2019-05-19T09:54:06.753Z,24.09
2019-05-19T09:59:06.974Z,24.5
2019-05-19T10:04:07.885Z,25.18
2019-05-19T10:09:07.502Z,25.07
2019-05-19T10:14:06.737Z,26.11
2019-05-19T10:19:06.928Z,26.12
2019-05-19T10:23:07.448Z,25.45
2019-05-19T10:28:06.723Z,25.94
2019-05-19T10:33:07.043Z,25.77
2019-05-19T10:38:07.384Z,25.45
2019-05-19T10:43:07.154Z,25.58
2019-05-19T10:48:07.495Z,25.83
2019-05-19T10:53:06.745Z,26.19
2019-05-19T10:57:07.146Z,26.17
2019-05-19T11:02:06.473Z,25.83
2019-05-19T11:07:06.877Z,26.26
2019-05-19T11:12:06.447Z,26.84
2019-05-19T11:17:06.804Z,26.22
2019-05-19T11:22:07.105Z,26.82
2019-05-19T11:27:06.303Z,26.42
2019-05-19T11:32:06.514Z,26.36
2019-05-19T11:36:08.053Z,26.42
2019-05-19T11:41:06.837Z,26.32
2019-05-19T11:46:06.992Z,26.06
2019-05-19T11:51:07.257Z,25.95
2019-05-19T11:56:11.945Z,26.16
2019-05-19T12:01:06.694Z,25.66
2019-05-19T12:06:07.021Z,26.12
2019-05-19T12:11:06.584Z,27.38
2019-05-19T12:16:06.952Z,27.31
2019-05-19T12:20:06.587Z,25.19
2019-05-19T12:25:06.917Z,26.6
2019-05-19T12:30:08.985Z,28.29
2019-05-19T12:35:07.341Z,27.88
2019-05-19T12:40:06.990Z,26.7
2019-05-19T12:45:08.765Z,25.92
2019-05-19T12:50:08.748Z,25.57
2019-05-19T12:54:06.800Z,25.44
2019-05-19T12:59:07.074Z,26.15
2019-05-19T13:04:06.693Z,26.73
2019-05-19T13:09:06.980Z,25.93
2019-05-19T13:14:06.670Z,25.56
2019-05-19T13:19:06.613Z,27.15
2019-05-19T13:24:06.868Z,26.25
2019-05-19T13:29:06.773Z,25.46
2019-05-19T13:33:07.413Z,24.91
2019-05-19T13:38:07.064Z,24.88
2019-05-19T13:43:07.334Z,25.35
2019-05-19T13:53:06.865Z,27.16
2019-05-19T13:58:07.099Z,26.42
2019-05-19T14:03:06.953Z,26.96
2019-05-19T14:08:07.190Z,26.25
2019-05-19T14:12:06.996Z,26.18
2019-05-19T14:17:07.289Z,26.34
2019-05-19T14:22:07.503Z,25.79
2019-05-19T14:27:07.066Z,26.62
2019-05-19T14:32:07.124Z,27.26
2019-05-19T14:37:07.330Z,25.8
2019-05-19T14:42:07.042Z,25.28
2019-05-19T14:47:07.147Z,26.62
2019-05-19T14:51:06.723Z,27.22
2019-05-19T14:56:07.590Z,27.46
2019-05-19T14:57:06.541Z,27.46
2019-05-19T15:01:06.653Z,28.77
2019-05-19T15:06:06.743Z,28.37
2019-05-19T15:11:06.760Z,28.61
2019-05-19T15:16:06.404Z,28.62
2019-05-19T15:21:06.966Z,28.48
2019-05-19T15:26:06.871Z,29.35
2019-05-19T15:31:06.616Z,28.99
2019-05-19T15:35:06.967Z,28.12
2019-05-19T15:40:06.715Z,27.66
2019-05-19T15:45:08.302Z,27.96
2019-05-19T15:50:07.714Z,27.74
2019-05-19T15:55:06.857Z,28.03
2019-05-19T16:00:09.814Z,27.87
2019-05-19T16:05:07.228Z,29.35
2019-05-19T16:09:07.007Z,29.77
2019-05-19T16:14:06.957Z,29.73
2019-05-19T16:19:07.338Z,30.37
2019-05-19T16:24:07.230Z,29.35
2019-05-19T16:29:07.414Z,29.2
2019-05-19T16:34:07.418Z,28.99
2019-05-19T16:38:06.853Z,28.84
2019-05-19T16:43:06.266Z,29.9
2019-05-19T16:48:07.079Z,29.72
2019-05-19T16:53:07.055Z,30.56
2019-05-19T16:58:22.235Z,31.41
2019-05-19T17:03:06.643Z,31.73
2019-05-19T17:08:07.025Z,31.25
2019-05-19T17:13:06.665Z,29.61
2019-05-19T17:17:07.067Z,28.63
2019-05-19T17:22:07.295Z,28.46
2019-05-19T17:27:07.657Z,28
2019-05-19T17:32:07.171Z,28.33
2019-05-19T17:37:07.392Z,27.91
2019-05-19T17:42:07.410Z,27.65
2019-05-19T17:46:06.726Z,25.94
2019-05-19T17:51:07.000Z,24.56
2019-05-19T17:56:07.016Z,23.45
2019-05-19T18:01:06.764Z,23.14
2019-05-19T18:06:07.033Z,23.13
2019-05-19T18:11:06.746Z,23.32
2019-05-19T18:15:08.001Z,22.93
2019-05-19T18:20:06.584Z,22.72
2019-05-19T18:25:07.158Z,22.47
2019-05-19T18:30:09.030Z,22.37
2019-05-19T18:35:06.560Z,22.07
2019-05-19T18:40:06.920Z,21.75
2019-05-19T18:45:08.261Z,21.34
2019-05-19T18:50:07.012Z,20.81
2019-05-19T18:54:07.455Z,20.54
2019-05-19T18:59:06.888Z,20.24
2019-05-19T19:04:06.242Z,19.89
2019-05-19T19:09:07.324Z,19.74
2019-05-19T19:14:07.576Z,19.5
2019-05-19T19:19:06.592Z,19.33
2019-05-19T19:24:07.279Z,19.17
2019-05-19T19:29:07.789Z,19.07
2019-05-19T19:34:06.533Z,18.87
2019-05-19T19:39:07.778Z,18.8
2019-05-19T19:43:07.840Z,18.67
2019-05-19T19:48:06.617Z,18.44
2019-05-19T19:53:06.807Z,18.33
2019-05-19T19:58:07.028Z,18.38
2019-05-19T20:03:07.633Z,18.43
2019-05-19T20:08:06.832Z,18.14
2019-05-19T20:13:06.729Z,18.02
2019-05-19T20:18:07.480Z,18
2019-05-19T20:22:06.519Z,17.92
2019-05-19T20:27:06.995Z,17.9
2019-05-19T20:32:07.240Z,17.81
2019-05-19T20:37:07.393Z,17.66
2019-05-19T20:42:07.028Z,17.65
2019-05-19T20:47:07.062Z,17.54
2019-05-19T20:52:07.338Z,17.47
2019-05-19T20:57:07.523Z,17.73
2019-05-19T21:01:06.718Z,17.77
2019-05-19T21:06:06.930Z,17.6
2019-05-19T21:11:06.589Z,17.36
2019-05-19T21:16:07.147Z,17.32
2019-05-19T21:21:07.403Z,17.28
2019-05-19T21:26:07.522Z,17.31
2019-05-19T21:31:07.186Z,17.22
2019-05-19T21:36:07.363Z,17.03
2019-05-19T21:40:06.843Z,16.96
2019-05-19T21:46:07.297Z,16.86
2019-05-19T21:50:06.436Z,16.71
2019-05-19T21:55:06.567Z,16.43
2019-05-19T22:00:07.804Z,16.16
2019-05-19T22:05:07.244Z,16.02
2019-05-19T22:10:06.914Z,15.97
2019-05-19T22:15:08.112Z,15.9
2019-05-19T22:20:06.411Z,15.8
2019-05-19T22:24:07.112Z,15.69
2019-05-19T22:29:07.229Z,15.77
2019-05-19T22:34:06.541Z,15.42
2019-05-19T22:39:07.127Z,14.82
2019-05-19T22:44:07.364Z,14.15
2019-05-19T22:49:06.783Z,13.77
2019-05-19T22:54:07.007Z,13.58
2019-05-19T22:59:20.667Z,13.66
2019-05-19T23:03:06.978Z,13.64
2019-05-19T23:08:07.147Z,13.79
2019-05-19T23:13:09.010Z,13.86
2019-05-19T23:18:07.337Z,13.95
2019-05-19T23:23:07.526Z,13.96
2019-05-19T23:28:06.722Z,14.01
2019-05-19T23:33:06.809Z,14.42
2019-05-19T23:38:06.925Z,14.3
2019-05-19T23:43:06.773Z,14.27
2019-05-19T23:47:07.313Z,14.44
2019-05-19T23:52:07.497Z,14.43
2019-05-19T23:57:06.711Z,14.51
